Harbor Springs, MI (49740)

10:15 AM EST on February 11, 2016 (GMT -0500)
Boyne Highlands Resort | | Change Station
CLOSE
Current Station
Personal Weather Station
Location: Harbor Springs, MI
Elevation: 787 ft
Nearby Weather Stations

Elev 787 ft 45.47 °N, 84.94 °W | Updated 9 seconds ago

Partly Cloudy
Partly Cloudy
8.6 °F
Feels Like -4 °F
N
9.0
Wind Variable Wind from NNW
Gusts 9.0 mph

Today
High -- | Low -- °F
--% Chance of Precip.
Yesterday
High -- | Low -- °F
Precip. -- in
Pressure 30.17 in
Visibility 10.0 miles
Clouds Clear
Windchill -4 °F
Dew Point 1 °F
Humidity 72%
Rainfall 0.00 in
Snow Depth Not available.
7:48 AM 6:00 PM
Waxing Crescent, 12% visible
METAR KMGN 111455Z AUTO 00000KT 10SM CLR M13/M18 A3017 RMK AO2 T11361184
Pressure 30.17 in
Visibility 10.0 miles
Clouds Clear
Windchill -4 °F
Dew Point 1 °F
Humidity 72%
Rainfall 0.00 in
Snow Depth Not available.
7:48 AM 6:00 PM
Waxing Crescent, 12% visible
METAR KMGN 111455Z AUTO 00000KT 10SM CLR M13/M18 A3017 RMK AO2 T11361184

10-Day Weather Forecast

Almanac

Astronomy

Feb. 11, 2016 Rise Set
Actual Time
Civil Twilight
Nautical Twilight
Astronomical Twilight
Moon
Length of Visible Light
Length of Day
Tomorrow will be .
, % of the Moon is Illuminated

Today's Extremes

State Highs State Lows

Community

WunderPhotos

Upload Photos

1,892,060 photos uploaded!

WunderBlog® & News

Nearby

Air Quality

  Air Quality AQ Index Pollutant
Not available.

Snow Depth

Station Depth Elevation

Earthquake Activity

City Distance Mag. Time & Date
Minimum magnitude displayed is 2.5.

Coastal Water Temperatures

Place Temperature

Stations

Nearby Weather Stations

Station Location Temp. Windchill Dew Point Humidity Wind Precip. Elev Updated Type
                   

Watches & Warnings

There are currently no watches in effect.